»·PEaware :: PSV130 KSFO-KPSP

PSV130 :: KSFO-KPSP

FLIGHT INFORMATION

Flight Status: Arrived
Operator:
Power Set Virtual (website)
More flights by this operator :: More flights under this callsign
Pilot: Anonymous 24489 (24489)
Aircraft: CANADAIR CL-600 CRJ-700
(CRJ7)
More flights by this aircraft type
Origin: KSFO San Francisco Intl
United States
Destination: KPSP Palm Springs Intl
United States
More flights between these airports :: More routes between these airports
Route: +SSTIK4 LOSHN CLASN SIZLR3
File this flight plan on PilotEdge
Remarks: RMK / SIMBRIEF
Altitude:
(Current/Filed)
37,000ft
Speed:
(Current/Filed)
448kts
Departed: 26-Mar-20 04:52 PM
Arrived: 26-Mar-20 06:05 PM
Distance/Time
Traveled:
365nm/1:13
Distance/Time
To Go:
Arrived

Flight Plot

Page will automatically refresh every two minutes.

Flight plan parsing failed; only flown route is shown


Map Options




Map Legend


Flown Route
Filed Route
Departure Airport
Arrival Airport
Navaid (VOR, NDB)
Fix

Horizontal Profiles

Position Reports

Time Latitude Longitude Heading Altitude Ground
Speed
26-Mar-20 16:27 37.615567 -122.383083 204 19ft 0kts
26-Mar-20 16:28 37.615567 -122.383083 204 19ft 0kts
26-Mar-20 16:29 37.615567 -122.383083 204 19ft 0kts
26-Mar-20 16:30 37.615567 -122.383083 204 19ft 0kts
26-Mar-20 16:31 37.615567 -122.383083 204 19ft 0kts
26-Mar-20 16:32 37.615567 -122.383083 204 19ft 0kts
26-Mar-20 16:33 37.615567 -122.383083 204 19ft 0kts
26-Mar-20 16:34 37.615567 -122.383083 204 19ft 0kts
26-Mar-20 16:35 37.615567 -122.383083 204 19ft 0kts
26-Mar-20 16:36 37.615567 -122.383083 204 19ft 0kts
26-Mar-20 16:37 37.615567 -122.383083 204 19ft 0kts
26-Mar-20 16:38 37.615567 -122.383083 204 19ft 0kts
26-Mar-20 16:39 37.615578 -122.383076 204 19ft 1kts
26-Mar-20 16:40 37.616161 -122.382580 266 19ft 2kts
26-Mar-20 16:41 37.616108 -122.382317 295 19ft 0kts
26-Mar-20 16:42 37.616108 -122.382317 295 19ft 0kts
26-Mar-20 16:43 37.616192 -122.382412 340 19ft 3kts
26-Mar-20 16:44 37.616097 -122.381811 137 19ft 0kts
26-Mar-20 16:45 37.616037 -122.381742 138 19ft 2kts
26-Mar-20 16:46 37.614808 -122.380886 203 19ft 10kts
26-Mar-20 16:47 37.611533 -122.383060 205 19ft 11kts
26-Mar-20 16:48 37.609000 -122.384661 194 19ft 0kts
26-Mar-20 16:49 37.608703 -122.383970 122 19ft 0kts
26-Mar-20 16:50 37.609183 -122.382291 30 19ft 5kts
26-Mar-20 16:51 37.632358 -122.365984 27 742ft 174kts
26-Mar-20 16:52 37.676470 -122.362577 315 4198ft 183kts
26-Mar-20 16:53 37.673281 -122.414689 197 7323ft 223kts
26-Mar-20 16:54 37.616391 -122.394514 100 9678ft 246kts
26-Mar-20 16:55 37.574624 -122.414385 231 11573ft 245kts
26-Mar-20 16:56 37.518385 -122.466581 217 13692ft 260kts
26-Mar-20 16:57 37.455654 -122.448851 131 15509ft 261kts
26-Mar-20 16:58 37.404191 -122.383444 129 17351ft 266kts
26-Mar-20 16:59 37.358790 -122.309028 119 18954ft 271kts
26-Mar-20 17:00 37.312439 -122.232302 121 20407ft 280kts
26-Mar-20 17:01 37.264227 -122.155644 120 21775ft 287kts
26-Mar-20 17:02 37.212821 -122.073771 120 22824ft 302kts
26-Mar-20 17:03 37.159929 -121.990075 121 23971ft 310kts
26-Mar-20 17:04 37.105858 -121.905654 122 25112ft 313kts
26-Mar-20 17:05 37.050847 -121.819806 123 26093ft 320kts
26-Mar-20 17:06 36.994518 -121.731887 124 27049ft 327kts
26-Mar-20 17:07 36.938580 -121.644692 125 28226ft 321kts
26-Mar-20 17:09 36.881185 -121.555016 125 28601ft 345kts
26-Mar-20 17:10 36.817931 -121.455771 126 28629ft 387kts
26-Mar-20 17:11 36.778891 -121.395032 127 28642ft 413kts
26-Mar-20 17:12 36.717347 -121.299794 127 28757ft 450kts
26-Mar-20 17:13 36.638424 -121.178150 128 30970ft 438kts
26-Mar-20 17:14 36.562504 -121.061622 130 32686ft 433kts
26-Mar-20 17:15 36.485603 -120.946635 132 33997ft 432kts
26-Mar-20 17:16 36.409361 -120.831087 132 35182ft 432kts
26-Mar-20 17:17 36.333172 -120.716198 133 36193ft 432kts
26-Mar-20 17:18 36.255913 -120.601879 134 36827ft 439kts
26-Mar-20 17:19 36.174956 -120.483130 134 36853ft 463kts
26-Mar-20 17:20 36.090092 -120.358262 134 36856ft 485kts
26-Mar-20 17:21 36.001942 -120.228366 134 37049ft 495kts
26-Mar-20 17:22 35.912812 -120.097325 134 37079ft 503kts
26-Mar-20 17:23 35.828842 -119.957863 120 37077ft 512kts
26-Mar-20 17:24 35.772926 -119.801362 117 37071ft 486kts
26-Mar-20 17:25 35.717477 -119.653897 119 37062ft 465kts
26-Mar-20 17:26 35.661884 -119.510700 123 37061ft 475kts
26-Mar-20 17:26 35.593309 -119.406441 141 37060ft 478kts
26-Mar-20 17:27 35.498544 -119.287881 137 37050ft 492kts
26-Mar-20 17:29 35.393057 -119.141883 138 37034ft 482kts
26-Mar-20 17:29 35.317635 -119.042654 139 37032ft 474kts
26-Mar-20 17:30 35.228210 -118.925192 139 37023ft 468kts
26-Mar-20 17:31 35.140596 -118.808961 139 37009ft 463kts
26-Mar-20 17:33 35.036008 -118.670749 139 34244ft 475kts
26-Mar-20 17:33 34.961860 -118.572473 140 32081ft 469kts
26-Mar-20 17:34 34.873883 -118.457037 141 29308ft 459kts
26-Mar-20 17:35 34.789811 -118.346611 140 26404ft 432kts
26-Mar-20 17:36 34.727870 -118.222071 124 23523ft 430kts
26-Mar-20 17:37 34.672084 -118.097345 126 20874ft 404kts
26-Mar-20 17:38 34.618142 -117.985247 126 19478ft 364kts
26-Mar-20 17:39 34.569288 -117.883645 125 18332ft 334kts
26-Mar-20 17:40 34.522358 -117.785852 124 17488ft 348kts
26-Mar-20 17:41 34.472093 -117.681570 124 16739ft 365kts
26-Mar-20 17:42 34.420945 -117.575965 123 16036ft 356kts
26-Mar-20 17:43 34.372303 -117.474896 123 15509ft 340kts
26-Mar-20 17:44 34.325788 -117.377521 123 15064ft 333kts
26-Mar-20 17:45 34.275777 -117.273553 123 14847ft 375kts
26-Mar-20 17:46 34.221356 -117.161301 123 14455ft 396kts
26-Mar-20 17:47 34.165278 -117.045890 123 14060ft 402kts
26-Mar-20 17:48 34.110072 -116.931243 123 13937ft 372kts
26-Mar-20 17:49 34.062001 -116.831792 125 13941ft 322kts
26-Mar-20 17:50 34.021297 -116.736313 112 13647ft 315kts
26-Mar-20 17:51 33.996135 -116.634722 109 12004ft 309kts
26-Mar-20 17:52 33.967100 -116.538969 130 10968ft 304kts
26-Mar-20 17:53 33.907426 -116.471580 142 10320ft 281kts
26-Mar-20 17:54 33.855105 -116.398986 122 9372ft 287kts
26-Mar-20 17:55 33.865829 -116.320441 12 7999ft 262kts
26-Mar-20 17:56 33.928337 -116.356099 322 7939ft 239kts
26-Mar-20 17:57 33.975209 -116.408571 280 6535ft 229kts
26-Mar-20 17:58 33.982863 -116.485009 257 4929ft 230kts
26-Mar-20 17:59 33.961091 -116.556981 242 3338ft 227kts
26-Mar-20 18:00 33.921114 -116.599220 169 2357ft 194kts
26-Mar-20 18:01 33.886388 -116.559044 140 1746ft 142kts
26-Mar-20 18:02 33.855912 -116.531577 145 1139ft 140kts
26-Mar-20 18:03 33.826932 -116.505117 149 485ft 119kts
26-Mar-20 18:04 33.817690 -116.497675 213 484ft 13kts
26-Mar-20 18:05 33.817654 -116.498955 322 484ft 15kts
26-Mar-20 18:06 33.822760 -116.504324 262 484ft 16kts
26-Mar-20 18:07 33.822212 -116.505806 201 484ft 16kts
26-Mar-20 18:08 33.820896 -116.507242 350 484ft 0kts
26-Mar-20 18:09 33.820897 -116.507242 350 484ft 0kts
26-Mar-20 18:10 33.820897 -116.507242 350 484ft 0kts

Navigation Log

Ident Type
Flight plan parsing failed, navigation log unavailable